North Hudson, Wisconsin
Current Conditions -  °F | °C
As of 10:31 AM on Monday 24 Nov 2014 (Local Time) from K21D Reporting Station
Overcast Overcast  
Wind Chill: 11°   Ceiling: 1300
Heat Index: 25°   Visibility: 10mi
Dew Point: 21°   Wind: 20mph
Humidity: 86%   Direction: 310°NW
Pressure: 29.42"   Gusts: 25mph
Location:  44.9743°N, 92.6899°W
Report Text: K21D 241631Z AUTO 31017G22KT 10SM OVC013 M04/M06 A2942 RMK AO2
Loading
Personal Weather Stations






























Interactive Weather Map New forecast layout! Learn more

10-Day Weather Forecast

Advertisements
Track Severe Weather on mobile